sensor_id;sensor_type;location;lat;lon;timestamp;P1;durP1;ratioP1;P2;durP2;ratioP2
803;SDS011;25687;49.976;8.240;2022-07-23T00:00:14;6.73;;;5.83;;
803;SDS011;25687;49.976;8.240;2022-07-23T00:02:40;6.13;;;5.63;;
803;SDS011;25687;49.976;8.240;2022-07-23T00:05:05;7.00;;;6.30;;
803;SDS011;25687;49.976;8.240;2022-07-23T00:07:31;5.93;;;5.27;;
803;SDS011;25687;49.976;8.240;2022-07-23T00:09:56;5.93;;;5.23;;
803;SDS011;25687;49.976;8.240;2022-07-23T00:12:21;6.00;;;5.23;;
803;SDS011;25687;49.976;8.240;2022-07-23T00:14:46;6.57;;;5.97;;
803;SDS011;25687;49.976;8.240;2022-07-23T00:17:12;9.77;;;5.37;;
803;SDS011;25687;49.976;8.240;2022-07-23T00:19:37;6.80;;;6.07;;
803;SDS011;25687;49.976;8.240;2022-07-23T00:22:03;7.83;;;6.03;;
803;SDS011;25687;49.976;8.240;2022-07-23T00:24:28;7.40;;;6.27;;
803;SDS011;25687;49.976;8.240;2022-07-23T00:26:53;6.07;;;5.57;;
803;SDS011;25687;49.976;8.240;2022-07-23T00:29:19;6.57;;;5.73;;
803;SDS011;25687;49.976;8.240;2022-07-23T00:31:44;6.10;;;5.47;;
803;SDS011;25687;49.976;8.240;2022-07-23T00:34:09;7.00;;;5.67;;
803;SDS011;25687;49.976;8.240;2022-07-23T00:36:35;6.40;;;5.80;;
803;SDS011;25687;49.976;8.240;2022-07-23T00:39:00;7.17;;;5.67;;
803;SDS011;25687;49.976;8.240;2022-07-23T00:41:25;6.97;;;5.73;;
803;SDS011;25687;49.976;8.240;2022-07-23T00:43:51;7.30;;;5.97;;
803;SDS011;25687;49.976;8.240;2022-07-23T00:46:20;6.47;;;5.87;;
803;SDS011;25687;49.976;8.240;2022-07-23T00:48:45;10.77;;;6.03;;
803;SDS011;25687;49.976;8.240;2022-07-23T00:51:11;6.30;;;5.77;;
803;SDS011;25687;49.976;8.240;2022-07-23T00:53:36;6.83;;;6.20;;
803;SDS011;25687;49.976;8.240;2022-07-23T00:56:01;7.07;;;5.97;;
803;SDS011;25687;49.976;8.240;2022-07-23T00:58:27;6.30;;;5.70;;
803;SDS011;25687;49.976;8.240;2022-07-23T01:00:52;6.30;;;5.63;;
803;SDS011;25687;49.976;8.240;2022-07-23T01:03:18;6.90;;;6.30;;
803;SDS011;25687;49.976;8.240;2022-07-23T01:05:43;6.23;;;5.73;;
803;SDS011;25687;49.976;8.240;2022-07-23T01:08:09;6.43;;;5.83;;
803;SDS011;25687;49.976;8.240;2022-07-23T01:10:35;6.97;;;6.27;;
803;SDS011;25687;49.976;8.240;2022-07-23T01:13:02;9.73;;;6.80;;
803;SDS011;25687;49.976;8.240;2022-07-23T01:15:33;7.03;;;6.27;;
803;SDS011;25687;49.976;8.240;2022-07-23T01:18:00;6.83;;;6.10;;
803;SDS011;25687;49.976;8.240;2022-07-23T01:20:26;7.20;;;6.03;;
803;SDS011;25687;49.976;8.240;2022-07-23T01:22:52;7.70;;;6.90;;
803;SDS011;25687;49.976;8.240;2022-07-23T01:25:18;6.80;;;6.20;;
803;SDS011;25687;49.976;8.240;2022-07-23T01:27:44;7.43;;;6.67;;
803;SDS011;25687;49.976;8.240;2022-07-23T01:30:10;8.13;;;6.87;;
803;SDS011;25687;49.976;8.240;2022-07-23T01:32:36;7.93;;;7.13;;
803;SDS011;25687;49.976;8.240;2022-07-23T01:35:01;7.67;;;6.97;;
803;SDS011;25687;49.976;8.240;2022-07-23T01:37:28;8.00;;;6.23;;
803;SDS011;25687;49.976;8.240;2022-07-23T01:39:53;7.70;;;6.90;;
803;SDS011;25687;49.976;8.240;2022-07-23T01:42:19;9.23;;;6.93;;
803;SDS011;25687;49.976;8.240;2022-07-23T01:44:44;9.40;;;7.47;;
803;SDS011;25687;49.976;8.240;2022-07-23T01:47:09;9.03;;;7.80;;
803;SDS011;25687;49.976;8.240;2022-07-23T01:49:35;8.63;;;7.83;;
803;SDS011;25687;49.976;8.240;2022-07-23T01:52:00;9.63;;;8.43;;
803;SDS011;25687;49.976;8.240;2022-07-23T01:54:29;9.83;;;8.83;;
803;SDS011;25687;49.976;8.240;2022-07-23T01:56:56;10.23;;;9.20;;
803;SDS011;25687;49.976;8.240;2022-07-23T01:59:22;9.20;;;8.40;;
803;SDS011;25687;49.976;8.240;2022-07-23T02:01:48;9.30;;;8.33;;
803;SDS011;25687;49.976;8.240;2022-07-23T02:04:16;11.17;;;9.30;;
803;SDS011;25687;49.976;8.240;2022-07-23T02:06:42;10.20;;;9.23;;
803;SDS011;25687;49.976;8.240;2022-07-23T02:09:07;9.90;;;9.00;;
803;SDS011;25687;49.976;8.240;2022-07-23T02:11:32;8.70;;;7.83;;
803;SDS011;25687;49.976;8.240;2022-07-23T02:13:58;10.03;;;8.73;;
803;SDS011;25687;49.976;8.240;2022-07-23T02:16:23;11.57;;;8.90;;
803;SDS011;25687;49.976;8.240;2022-07-23T02:18:48;9.33;;;8.40;;
803;SDS011;25687;49.976;8.240;2022-07-23T02:21:14;9.23;;;8.10;;
803;SDS011;25687;49.976;8.240;2022-07-23T02:23:39;9.27;;;8.47;;
803;SDS011;25687;49.976;8.240;2022-07-23T02:26:04;9.80;;;8.40;;
803;SDS011;25687;49.976;8.240;2022-07-23T02:28:30;9.63;;;8.60;;
803;SDS011;25687;49.976;8.240;2022-07-23T02:30:55;9.03;;;8.23;;
803;SDS011;25687;49.976;8.240;2022-07-23T02:33:20;8.83;;;7.93;;
803;SDS011;25687;49.976;8.240;2022-07-23T02:35:46;9.03;;;8.13;;
803;SDS011;25687;49.976;8.240;2022-07-23T02:38:11;10.30;;;8.47;;
803;SDS011;25687;49.976;8.240;2022-07-23T02:40:37;8.70;;;7.90;;
803;SDS011;25687;49.976;8.240;2022-07-23T02:43:02;12.63;;;8.23;;
803;SDS011;25687;49.976;8.240;2022-07-23T02:45:28;8.53;;;7.50;;
803;SDS011;25687;49.976;8.240;2022-07-23T02:47:53;9.30;;;8.40;;
803;SDS011;25687;49.976;8.240;2022-07-23T02:50:18;10.37;;;8.87;;
803;SDS011;25687;49.976;8.240;2022-07-23T02:52:44;8.30;;;7.53;;
803;SDS011;25687;49.976;8.240;2022-07-23T02:55:09;8.83;;;8.03;;
803;SDS011;25687;49.976;8.240;2022-07-23T02:57:35;10.23;;;8.47;;
803;SDS011;25687;49.976;8.240;2022-07-23T03:00:01;8.20;;;7.23;;
803;SDS011;25687;49.976;8.240;2022-07-23T03:02:26;8.70;;;8.00;;
803;SDS011;25687;49.976;8.240;2022-07-23T03:04:52;9.40;;;8.00;;
803;SDS011;25687;49.976;8.240;2022-07-23T03:07:17;8.50;;;7.70;;
803;SDS011;25687;49.976;8.240;2022-07-23T03:09:43;8.80;;;8.00;;
803;SDS011;25687;49.976;8.240;2022-07-23T03:12:08;9.63;;;8.70;;
803;SDS011;25687;49.976;8.240;2022-07-23T03:14:34;8.40;;;7.60;;
803;SDS011;25687;49.976;8.240;2022-07-23T03:16:59;12.30;;;8.33;;
803;SDS011;25687;49.976;8.240;2022-07-23T03:19:27;9.00;;;8.20;;
803;SDS011;25687;49.976;8.240;2022-07-23T03:21:52;8.90;;;8.03;;
803;SDS011;25687;49.976;8.240;2022-07-23T03:24:18;10.77;;;8.60;;
803;SDS011;25687;49.976;8.240;2022-07-23T03:26:43;8.03;;;7.33;;
803;SDS011;25687;49.976;8.240;2022-07-23T03:29:09;8.87;;;7.97;;
803;SDS011;25687;49.976;8.240;2022-07-23T03:31:34;8.37;;;7.67;;
803;SDS011;25687;49.976;8.240;2022-07-23T03:34:00;7.63;;;7.00;;
803;SDS011;25687;49.976;8.240;2022-07-23T03:36:25;9.87;;;7.93;;
803;SDS011;25687;49.976;8.240;2022-07-23T03:38:51;9.07;;;8.00;;
803;SDS011;25687;49.976;8.240;2022-07-23T03:41:16;8.93;;;7.50;;
803;SDS011;25687;49.976;8.240;2022-07-23T03:43:42;9.07;;;8.17;;
803;SDS011;25687;49.976;8.240;2022-07-23T03:46:07;11.03;;;9.30;;
803;SDS011;25687;49.976;8.240;2022-07-23T03:48:33;9.13;;;8.37;;
803;SDS011;25687;49.976;8.240;2022-07-23T03:50:58;9.43;;;8.47;;
803;SDS011;25687;49.976;8.240;2022-07-23T03:53:24;9.27;;;8.27;;
803;SDS011;25687;49.976;8.240;2022-07-23T03:55:49;8.27;;;7.50;;
803;SDS011;25687;49.976;8.240;2022-07-23T03:58:14;10.63;;;7.97;;
803;SDS011;25687;49.976;8.240;2022-07-23T04:00:39;8.83;;;7.97;;
803;SDS011;25687;49.976;8.240;2022-07-23T04:03:05;9.43;;;7.80;;
803;SDS011;25687;49.976;8.240;2022-07-23T04:05:30;9.17;;;8.20;;
803;SDS011;25687;49.976;8.240;2022-07-23T04:07:55;12.27;;;9.23;;
803;SDS011;25687;49.976;8.240;2022-07-23T04:10:21;10.37;;;7.83;;
803;SDS011;25687;49.976;8.240;2022-07-23T04:12:46;8.57;;;7.67;;
803;SDS011;25687;49.976;8.240;2022-07-23T04:15:11;10.70;;;8.10;;
803;SDS011;25687;49.976;8.240;2022-07-23T04:17:37;11.60;;;7.80;;
803;SDS011;25687;49.976;8.240;2022-07-23T04:20:02;7.80;;;6.93;;
803;SDS011;25687;49.976;8.240;2022-07-23T04:22:28;9.43;;;7.90;;
803;SDS011;25687;49.976;8.240;2022-07-23T04:24:53;8.57;;;7.67;;
803;SDS011;25687;49.976;8.240;2022-07-23T04:27:19;8.33;;;7.60;;
803;SDS011;25687;49.976;8.240;2022-07-23T04:29:44;9.00;;;7.77;;
803;SDS011;25687;49.976;8.240;2022-07-23T04:32:09;8.60;;;7.80;;
803;SDS011;25687;49.976;8.240;2022-07-23T04:34:35;9.33;;;7.90;;
803;SDS011;25687;49.976;8.240;2022-07-23T04:37:00;10.47;;;8.47;;
803;SDS011;25687;49.976;8.240;2022-07-23T04:39:25;9.53;;;8.73;;
803;SDS011;25687;49.976;8.240;2022-07-23T04:41:50;11.60;;;9.13;;
803;SDS011;25687;49.976;8.240;2022-07-23T04:44:16;10.50;;;9.20;;
803;SDS011;25687;49.976;8.240;2022-07-23T04:46:41;9.73;;;8.83;;
803;SDS011;25687;49.976;8.240;2022-07-23T04:49:07;10.87;;;9.77;;
803;SDS011;25687;49.976;8.240;2022-07-23T04:51:32;10.43;;;9.43;;
803;SDS011;25687;49.976;8.240;2022-07-23T04:53:57;10.00;;;9.00;;
803;SDS011;25687;49.976;8.240;2022-07-23T04:56:23;10.37;;;9.13;;
803;SDS011;25687;49.976;8.240;2022-07-23T04:58:48;10.00;;;9.20;;
803;SDS011;25687;49.976;8.240;2022-07-23T05:01:13;11.17;;;9.67;;
803;SDS011;25687;49.976;8.240;2022-07-23T05:03:39;9.90;;;9.00;;
803;SDS011;25687;49.976;8.240;2022-07-23T05:06:04;10.37;;;9.47;;
803;SDS011;25687;49.976;8.240;2022-07-23T05:08:29;10.17;;;9.13;;
803;SDS011;25687;49.976;8.240;2022-07-23T05:10:55;10.07;;;9.20;;
803;SDS011;25687;49.976;8.240;2022-07-23T05:13:20;10.33;;;9.30;;
803;SDS011;25687;49.976;8.240;2022-07-23T05:15:46;11.43;;;10.37;;
803;SDS011;25687;49.976;8.240;2022-07-23T05:18:12;10.63;;;9.47;;
803;SDS011;25687;49.976;8.240;2022-07-23T05:20:38;10.50;;;9.53;;
803;SDS011;25687;49.976;8.240;2022-07-23T05:23:03;10.30;;;9.30;;
803;SDS011;25687;49.976;8.240;2022-07-23T05:25:29;11.07;;;9.97;;
803;SDS011;25687;49.976;8.240;2022-07-23T05:27:54;11.67;;;10.57;;
803;SDS011;25687;49.976;8.240;2022-07-23T05:30:20;10.27;;;9.37;;
803;SDS011;25687;49.976;8.240;2022-07-23T05:32:45;10.30;;;9.17;;
803;SDS011;25687;49.976;8.240;2022-07-23T05:35:11;10.63;;;9.53;;
803;SDS011;25687;49.976;8.240;2022-07-23T05:37:36;11.13;;;10.07;;
803;SDS011;25687;49.976;8.240;2022-07-23T05:40:05;10.90;;;9.80;;
803;SDS011;25687;49.976;8.240;2022-07-23T05:42:33;11.60;;;10.43;;
803;SDS011;25687;49.976;8.240;2022-07-23T05:44:59;10.93;;;9.83;;
803;SDS011;25687;49.976;8.240;2022-07-23T05:47:24;9.60;;;8.80;;
803;SDS011;25687;49.976;8.240;2022-07-23T05:49:50;10.47;;;9.53;;
803;SDS011;25687;49.976;8.240;2022-07-23T05:52:15;10.23;;;9.23;;
803;SDS011;25687;49.976;8.240;2022-07-23T05:54:40;10.20;;;9.27;;
803;SDS011;25687;49.976;8.240;2022-07-23T05:57:06;11.20;;;9.53;;
803;SDS011;25687;49.976;8.240;2022-07-23T05:59:32;10.57;;;9.57;;
803;SDS011;25687;49.976;8.240;2022-07-23T06:01:57;10.37;;;9.30;;
803;SDS011;25687;49.976;8.240;2022-07-23T06:04:22;10.00;;;9.07;;
803;SDS011;25687;49.976;8.240;2022-07-23T06:06:48;9.23;;;8.40;;
803;SDS011;25687;49.976;8.240;2022-07-23T06:09:13;10.87;;;9.97;;
803;SDS011;25687;49.976;8.240;2022-07-23T06:11:39;10.17;;;9.27;;
803;SDS011;25687;49.976;8.240;2022-07-23T06:14:05;9.93;;;9.13;;
803;SDS011;25687;49.976;8.240;2022-07-23T06:16:31;10.17;;;9.20;;
803;SDS011;25687;49.976;8.240;2022-07-23T06:18:56;13.07;;;8.73;;
803;SDS011;25687;49.976;8.240;2022-07-23T06:21:21;9.63;;;8.70;;
803;SDS011;25687;49.976;8.240;2022-07-23T06:23:47;9.70;;;8.73;;
803;SDS011;25687;49.976;8.240;2022-07-23T06:26:12;9.70;;;8.73;;
803;SDS011;25687;49.976;8.240;2022-07-23T06:28:37;10.03;;;9.13;;
803;SDS011;25687;49.976;8.240;2022-07-23T06:31:03;9.10;;;8.17;;
803;SDS011;25687;49.976;8.240;2022-07-23T06:33:28;7.97;;;7.27;;
803;SDS011;25687;49.976;8.240;2022-07-23T06:35:53;8.40;;;7.60;;
803;SDS011;25687;49.976;8.240;2022-07-23T06:38:18;9.23;;;7.13;;
803;SDS011;25687;49.976;8.240;2022-07-23T06:40:44;8.33;;;7.50;;
803;SDS011;25687;49.976;8.240;2022-07-23T06:43:10;8.07;;;7.27;;
803;SDS011;25687;49.976;8.240;2022-07-23T06:45:35;9.30;;;7.40;;
803;SDS011;25687;49.976;8.240;2022-07-23T06:48:01;7.23;;;6.63;;
803;SDS011;25687;49.976;8.240;2022-07-23T06:50:27;7.27;;;6.67;;
803;SDS011;25687;49.976;8.240;2022-07-23T06:52:53;6.47;;;5.90;;
803;SDS011;25687;49.976;8.240;2022-07-23T06:55:18;7.13;;;5.95;;
803;SDS011;25687;49.976;8.240;2022-07-23T06:57:44;7.63;;;6.20;;
803;SDS011;25687;49.976;8.240;2022-07-23T07:00:10;6.32;;;5.82;;
803;SDS011;25687;49.976;8.240;2022-07-23T07:02:35;6.25;;;5.70;;
803;SDS011;25687;49.976;8.240;2022-07-23T07:05:01;6.38;;;5.88;;
803;SDS011;25687;49.976;8.240;2022-07-23T07:07:26;7.00;;;6.30;;
803;SDS011;25687;49.976;8.240;2022-07-23T07:09:52;5.70;;;5.28;;
803;SDS011;25687;49.976;8.240;2022-07-23T07:12:17;7.93;;;5.80;;
803;SDS011;25687;49.976;8.240;2022-07-23T07:14:42;5.63;;;5.03;;
803;SDS011;25687;49.976;8.240;2022-07-23T07:17:08;6.03;;;5.38;;
803;SDS011;25687;49.976;8.240;2022-07-23T07:19:35;6.20;;;5.60;;
803;SDS011;25687;49.976;8.240;2022-07-23T07:22:01;7.40;;;5.53;;
803;SDS011;25687;49.976;8.240;2022-07-23T07:24:27;6.20;;;4.95;;
803;SDS011;25687;49.976;8.240;2022-07-23T07:26:52;6.85;;;5.18;;
803;SDS011;25687;49.976;8.240;2022-07-23T07:29:17;5.47;;;4.65;;
803;SDS011;25687;49.976;8.240;2022-07-23T07:31:43;5.88;;;5.38;;
803;SDS011;25687;49.976;8.240;2022-07-23T07:34:08;6.05;;;4.90;;
803;SDS011;25687;49.976;8.240;2022-07-23T07:36:33;5.13;;;4.70;;
803;SDS011;25687;49.976;8.240;2022-07-23T07:39:00;5.07;;;4.65;;
803;SDS011;25687;49.976;8.240;2022-07-23T07:41:26;6.28;;;5.68;;
803;SDS011;25687;49.976;8.240;2022-07-23T07:43:51;8.20;;;5.50;;
803;SDS011;25687;49.976;8.240;2022-07-23T07:46:17;6.38;;;5.30;;
803;SDS011;25687;49.976;8.240;2022-07-23T07:48:42;5.95;;;5.32;;
803;SDS011;25687;49.976;8.240;2022-07-23T07:51:07;6.25;;;5.32;;
803;SDS011;25687;49.976;8.240;2022-07-23T07:53:33;5.85;;;5.30;;
803;SDS011;25687;49.976;8.240;2022-07-23T07:55:58;10.70;;;5.75;;
803;SDS011;25687;49.976;8.240;2022-07-23T07:58:23;9.00;;;5.63;;
803;SDS011;25687;49.976;8.240;2022-07-23T08:00:49;6.13;;;5.53;;
803;SDS011;25687;49.976;8.240;2022-07-23T08:03:14;6.35;;;5.85;;
803;SDS011;25687;49.976;8.240;2022-07-23T08:05:39;5.55;;;5.03;;
803;SDS011;25687;49.976;8.240;2022-07-23T08:08:05;5.57;;;5.07;;
803;SDS011;25687;49.976;8.240;2022-07-23T08:10:30;5.82;;;4.97;;
803;SDS011;25687;49.976;8.240;2022-07-23T08:12:56;7.60;;;5.70;;
803;SDS011;25687;49.976;8.240;2022-07-23T08:15:23;7.07;;;5.50;;
803;SDS011;25687;49.976;8.240;2022-07-23T08:17:51;5.82;;;5.32;;
803;SDS011;25687;49.976;8.240;2022-07-23T08:20:17;7.63;;;5.45;;
803;SDS011;25687;49.976;8.240;2022-07-23T08:22:55;6.43;;;5.82;;
803;SDS011;25687;49.976;8.240;2022-07-23T08:25:25;5.88;;;5.25;;
803;SDS011;25687;49.976;8.240;2022-07-23T08:27:52;7.35;;;4.85;;
803;SDS011;25687;49.976;8.240;2022-07-23T08:30:18;6.10;;;5.50;;
803;SDS011;25687;49.976;8.240;2022-07-23T08:35:26;4.80;;;4.40;;
803;SDS011;25687;49.976;8.240;2022-07-23T08:37:57;6.65;;;4.63;;
803;SDS011;25687;49.976;8.240;2022-07-23T08:40:23;5.47;;;4.95;;
803;SDS011;25687;49.976;8.240;2022-07-23T08:42:51;5.30;;;4.80;;
803;SDS011;25687;49.976;8.240;2022-07-23T08:45:17;5.00;;;4.60;;
803;SDS011;25687;49.976;8.240;2022-07-23T08:47:45;5.28;;;4.88;;
803;SDS011;25687;49.976;8.240;2022-07-23T08:50:14;5.10;;;4.68;;
803;SDS011;25687;49.976;8.240;2022-07-23T08:52:39;5.70;;;5.20;;
803;SDS011;25687;49.976;8.240;2022-07-23T08:55:05;5.28;;;4.80;;
803;SDS011;25687;49.976;8.240;2022-07-23T08:57:31;5.63;;;5.13;;
803;SDS011;25687;49.976;8.240;2022-07-23T08:59:58;5.53;;;5.03;;
803;SDS011;25687;49.976;8.240;2022-07-23T09:02:23;5.43;;;5.00;;
803;SDS011;25687;49.976;8.240;2022-07-23T09:04:48;6.57;;;5.00;;
803;SDS011;25687;49.976;8.240;2022-07-23T09:07:14;5.20;;;4.70;;
803;SDS011;25687;49.976;8.240;2022-07-23T09:09:40;7.60;;;5.60;;
803;SDS011;25687;49.976;8.240;2022-07-23T09:12:06;6.05;;;5.35;;
803;SDS011;25687;49.976;8.240;2022-07-23T09:14:36;6.60;;;5.05;;
803;SDS011;25687;49.976;8.240;2022-07-23T09:17:08;5.90;;;5.38;;
803;SDS011;25687;49.976;8.240;2022-07-23T09:19:35;9.38;;;5.10;;
803;SDS011;25687;49.976;8.240;2022-07-23T09:22:15;4.13;;;3.83;;
803;SDS011;25687;49.976;8.240;2022-07-23T09:25:05;4.53;;;4.10;;
803;SDS011;25687;49.976;8.240;2022-07-23T09:30:12;11.55;;;3.92;;
803;SDS011;25687;49.976;8.240;2022-07-23T09:32:38;4.22;;;3.92;;
803;SDS011;25687;49.976;8.240;2022-07-23T09:35:04;4.38;;;3.97;;
803;SDS011;25687;49.976;8.240;2022-07-23T09:37:30;4.75;;;4.30;;
803;SDS011;25687;49.976;8.240;2022-07-23T09:40:03;4.13;;;3.78;;
803;SDS011;25687;49.976;8.240;2022-07-23T09:42:29;4.95;;;4.50;;
803;SDS011;25687;49.976;8.240;2022-07-23T09:44:56;6.35;;;4.25;;
803;SDS011;25687;49.976;8.240;2022-07-23T09:47:23;4.30;;;3.90;;
803;SDS011;25687;49.976;8.240;2022-07-23T09:50:00;4.72;;;4.32;;
803;SDS011;25687;49.976;8.240;2022-07-23T09:52:30;5.40;;;4.10;;
803;SDS011;25687;49.976;8.240;2022-07-23T09:55:01;6.10;;;4.10;;
803;SDS011;25687;49.976;8.240;2022-07-23T09:57:31;5.00;;;3.75;;
803;SDS011;25687;49.976;8.240;2022-07-23T09:59:58;5.70;;;3.92;;
803;SDS011;25687;49.976;8.240;2022-07-23T10:02:27;4.28;;;3.58;;
803;SDS011;25687;49.976;8.240;2022-07-23T10:04:54;4.28;;;3.88;;
803;SDS011;25687;49.976;8.240;2022-07-23T10:07:21;4.13;;;3.83;;
803;SDS011;25687;49.976;8.240;2022-07-23T10:09:49;4.95;;;4.28;;
803;SDS011;25687;49.976;8.240;2022-07-23T10:12:17;5.95;;;4.32;;
803;SDS011;25687;49.976;8.240;2022-07-23T10:14:46;4.30;;;3.90;;
803;SDS011;25687;49.976;8.240;2022-07-23T10:17:12;5.93;;;4.47;;
803;SDS011;25687;49.976;8.240;2022-07-23T10:19:38;5.32;;;4.38;;
803;SDS011;25687;49.976;8.240;2022-07-23T10:22:06;4.85;;;4.45;;
803;SDS011;25687;49.976;8.240;2022-07-23T10:30:04;5.40;;;4.85;;
803;SDS011;25687;49.976;8.240;2022-07-23T10:35:39;4.65;;;4.25;;
803;SDS011;25687;49.976;8.240;2022-07-23T10:40:56;4.90;;;4.43;;
803;SDS011;25687;49.976;8.240;2022-07-23T10:43:24;4.93;;;4.55;;
803;SDS011;25687;49.976;8.240;2022-07-23T10:45:50;6.60;;;4.95;;
803;SDS011;25687;49.976;8.240;2022-07-23T10:50:42;5.40;;;4.97;;
803;SDS011;25687;49.976;8.240;2022-07-23T10:53:28;5.72;;;5.20;;
803;SDS011;25687;49.976;8.240;2022-07-23T10:59:14;8.38;;;5.00;;
803;SDS011;25687;49.976;8.240;2022-07-23T11:01:40;5.60;;;5.10;;
803;SDS011;25687;49.976;8.240;2022-07-23T11:04:05;5.93;;;5.32;;
803;SDS011;25687;49.976;8.240;2022-07-23T11:07:33;6.20;;;5.30;;
803;SDS011;25687;49.976;8.240;2022-07-23T11:09:38;6.03;;;5.53;;
803;SDS011;25687;49.976;8.240;2022-07-23T11:17:31;5.82;;;5.10;;
803;SDS011;25687;49.976;8.240;2022-07-23T11:25:09;5.72;;;5.10;;
803;SDS011;25687;49.976;8.240;2022-07-23T11:27:39;5.22;;;4.72;;
803;SDS011;25687;49.976;8.240;2022-07-23T11:33:37;5.60;;;5.10;;
803;SDS011;25687;49.976;8.240;2022-07-23T11:35:38;6.40;;;5.50;;
803;SDS011;25687;49.976;8.240;2022-07-23T11:38:22;6.13;;;5.53;;
803;SDS011;25687;49.976;8.240;2022-07-23T11:40:54;5.93;;;5.43;;
803;SDS011;25687;49.976;8.240;2022-07-23T11:43:23;5.38;;;4.88;;
803;SDS011;25687;49.976;8.240;2022-07-23T11:45:53;7.82;;;5.57;;
803;SDS011;25687;49.976;8.240;2022-07-23T11:48:23;6.38;;;5.30;;
803;SDS011;25687;49.976;8.240;2022-07-23T11:50:52;6.07;;;5.57;;
803;SDS011;25687;49.976;8.240;2022-07-23T11:53:22;5.65;;;5.25;;
803;SDS011;25687;49.976;8.240;2022-07-23T11:55:51;6.45;;;4.97;;
803;SDS011;25687;49.976;8.240;2022-07-23T11:58:18;5.47;;;5.00;;
803;SDS011;25687;49.976;8.240;2022-07-23T12:00:44;5.78;;;5.25;;
803;SDS011;25687;49.976;8.240;2022-07-23T12:03:09;6.88;;;4.70;;
803;SDS011;25687;49.976;8.240;2022-07-23T12:05:35;5.95;;;5.20;;
803;SDS011;25687;49.976;8.240;2022-07-23T12:08:03;5.45;;;4.97;;
803;SDS011;25687;49.976;8.240;2022-07-23T12:10:33;4.88;;;4.47;;
803;SDS011;25687;49.976;8.240;2022-07-23T12:13:16;6.72;;;5.18;;
803;SDS011;25687;49.976;8.240;2022-07-23T12:15:48;6.00;;;5.32;;
803;SDS011;25687;49.976;8.240;2022-07-23T12:18:19;5.47;;;4.93;;
803;SDS011;25687;49.976;8.240;2022-07-23T12:20:49;5.97;;;5.25;;
803;SDS011;25687;49.976;8.240;2022-07-23T12:23:17;7.50;;;4.80;;
803;SDS011;25687;49.976;8.240;2022-07-23T12:25:45;5.78;;;5.15;;
803;SDS011;25687;49.976;8.240;2022-07-23T12:28:15;4.85;;;4.38;;
803;SDS011;25687;49.976;8.240;2022-07-23T12:30:52;6.40;;;4.88;;
803;SDS011;25687;49.976;8.240;2022-07-23T12:33:26;5.85;;;4.97;;
803;SDS011;25687;49.976;8.240;2022-07-23T12:35:55;4.65;;;4.35;;
803;SDS011;25687;49.976;8.240;2022-07-23T12:38:23;6.70;;;4.72;;
803;SDS011;25687;49.976;8.240;2022-07-23T12:40:51;5.30;;;4.80;;
803;SDS011;25687;49.976;8.240;2022-07-23T12:43:24;4.93;;;4.50;;
803;SDS011;25687;49.976;8.240;2022-07-23T12:45:54;4.65;;;4.25;;
803;SDS011;25687;49.976;8.240;2022-07-23T12:51:00;5.13;;;4.63;;
803;SDS011;25687;49.976;8.240;2022-07-23T12:55:58;6.32;;;5.15;;
803;SDS011;25687;49.976;8.240;2022-07-23T13:03:53;5.03;;;4.63;;
803;SDS011;25687;49.976;8.240;2022-07-23T13:06:46;7.07;;;4.53;;
803;SDS011;25687;49.976;8.240;2022-07-23T13:09:27;5.35;;;4.85;;
803;SDS011;25687;49.976;8.240;2022-07-23T13:11:54;5.85;;;4.50;;
803;SDS011;25687;49.976;8.240;2022-07-23T13:14:21;5.07;;;4.45;;
803;SDS011;25687;49.976;8.240;2022-07-23T13:16:48;6.35;;;4.70;;
803;SDS011;25687;49.976;8.240;2022-07-23T13:19:14;5.63;;;4.85;;
803;SDS011;25687;49.976;8.240;2022-07-23T13:21:40;5.65;;;5.13;;
803;SDS011;25687;49.976;8.240;2022-07-23T13:24:07;5.97;;;4.63;;
803;SDS011;25687;49.976;8.240;2022-07-23T13:26:33;5.55;;;4.93;;
803;SDS011;25687;49.976;8.240;2022-07-23T13:28:59;4.95;;;4.55;;
803;SDS011;25687;49.976;8.240;2022-07-23T13:31:24;6.20;;;4.88;;
803;SDS011;25687;49.976;8.240;2022-07-23T13:33:50;4.68;;;4.10;;
803;SDS011;25687;49.976;8.240;2022-07-23T13:36:15;5.22;;;4.72;;
803;SDS011;25687;49.976;8.240;2022-07-23T13:38:40;4.18;;;3.80;;
803;SDS011;25687;49.976;8.240;2022-07-23T13:41:06;5.10;;;4.50;;
803;SDS011;25687;49.976;8.240;2022-07-23T13:43:32;4.70;;;4.30;;
803;SDS011;25687;49.976;8.240;2022-07-23T13:45:57;6.97;;;4.65;;
803;SDS011;25687;49.976;8.240;2022-07-23T13:48:23;5.65;;;4.82;;
803;SDS011;25687;49.976;8.240;2022-07-23T13:50:49;5.95;;;5.00;;
803;SDS011;25687;49.976;8.240;2022-07-23T13:53:20;4.78;;;4.28;;
803;SDS011;25687;49.976;8.240;2022-07-23T13:55:48;5.45;;;4.78;;
803;SDS011;25687;49.976;8.240;2022-07-23T13:58:16;4.93;;;4.43;;
803;SDS011;25687;49.976;8.240;2022-07-23T14:00:43;6.60;;;4.70;;
803;SDS011;25687;49.976;8.240;2022-07-23T14:03:14;7.07;;;4.57;;
803;SDS011;25687;49.976;8.240;2022-07-23T14:05:40;5.22;;;4.75;;
803;SDS011;25687;49.976;8.240;2022-07-23T14:08:06;5.05;;;4.57;;
803;SDS011;25687;49.976;8.240;2022-07-23T14:10:32;6.65;;;5.18;;
803;SDS011;25687;49.976;8.240;2022-07-23T14:12:57;4.68;;;4.28;;
803;SDS011;25687;49.976;8.240;2022-07-23T14:15:24;6.72;;;4.78;;
803;SDS011;25687;49.976;8.240;2022-07-23T14:17:51;5.35;;;4.82;;
803;SDS011;25687;49.976;8.240;2022-07-23T14:20:17;5.07;;;4.68;;
803;SDS011;25687;49.976;8.240;2022-07-23T14:22:43;4.93;;;4.50;;
803;SDS011;25687;49.976;8.240;2022-07-23T14:25:08;5.15;;;4.65;;
803;SDS011;25687;49.976;8.240;2022-07-23T14:27:36;5.68;;;4.68;;
803;SDS011;25687;49.976;8.240;2022-07-23T14:30:02;5.53;;;4.50;;
803;SDS011;25687;49.976;8.240;2022-07-23T14:32:29;5.78;;;5.13;;
803;SDS011;25687;49.976;8.240;2022-07-23T14:34:54;8.05;;;5.20;;
803;SDS011;25687;49.976;8.240;2022-07-23T14:37:19;6.65;;;4.25;;
803;SDS011;25687;49.976;8.240;2022-07-23T14:39:45;4.95;;;4.43;;
803;SDS011;25687;49.976;8.240;2022-07-23T14:42:11;6.18;;;4.70;;
803;SDS011;25687;49.976;8.240;2022-07-23T14:44:37;5.40;;;4.38;;
803;SDS011;25687;49.976;8.240;2022-07-23T14:47:03;5.25;;;4.75;;
803;SDS011;25687;49.976;8.240;2022-07-23T14:49:30;5.20;;;4.70;;
803;SDS011;25687;49.976;8.240;2022-07-23T14:51:57;6.75;;;5.03;;
803;SDS011;25687;49.976;8.240;2022-07-23T14:54:22;6.15;;;4.53;;
803;SDS011;25687;49.976;8.240;2022-07-23T14:56:50;6.78;;;4.70;;
803;SDS011;25687;49.976;8.240;2022-07-23T14:59:16;6.18;;;4.70;;
803;SDS011;25687;49.976;8.240;2022-07-23T15:01:41;5.20;;;4.28;;
803;SDS011;25687;49.976;8.240;2022-07-23T15:04:06;4.72;;;4.22;;
803;SDS011;25687;49.976;8.240;2022-07-23T15:06:32;4.80;;;4.30;;
803;SDS011;25687;49.976;8.240;2022-07-23T15:08:58;9.25;;;3.95;;
803;SDS011;25687;49.976;8.240;2022-07-23T15:11:25;4.97;;;4.55;;
803;SDS011;25687;49.976;8.240;2022-07-23T15:13:51;4.95;;;4.55;;
803;SDS011;25687;49.976;8.240;2022-07-23T15:16:16;4.45;;;4.15;;
803;SDS011;25687;49.976;8.240;2022-07-23T15:18:42;4.55;;;4.25;;
803;SDS011;25687;49.976;8.240;2022-07-23T15:21:08;5.47;;;4.05;;
803;SDS011;25687;49.976;8.240;2022-07-23T15:23:33;5.13;;;4.63;;
803;SDS011;25687;49.976;8.240;2022-07-23T15:26:00;4.57;;;4.18;;
803;SDS011;25687;49.976;8.240;2022-07-23T15:28:25;4.35;;;3.95;;
803;SDS011;25687;49.976;8.240;2022-07-23T15:30:51;4.28;;;3.80;;
803;SDS011;25687;49.976;8.240;2022-07-23T15:33:17;3.88;;;3.42;;
803;SDS011;25687;49.976;8.240;2022-07-23T15:35:43;5.00;;;4.30;;
803;SDS011;25687;49.976;8.240;2022-07-23T15:38:08;6.38;;;4.10;;
803;SDS011;25687;49.976;8.240;2022-07-23T15:40:33;4.55;;;3.90;;
803;SDS011;25687;49.976;8.240;2022-07-23T15:42:59;3.83;;;3.53;;
803;SDS011;25687;49.976;8.240;2022-07-23T15:45:25;3.75;;;3.45;;
803;SDS011;25687;49.976;8.240;2022-07-23T15:47:51;4.88;;;3.47;;
803;SDS011;25687;49.976;8.240;2022-07-23T15:50:16;3.83;;;3.42;;
803;SDS011;25687;49.976;8.240;2022-07-23T15:52:41;4.28;;;3.10;;
803;SDS011;25687;49.976;8.240;2022-07-23T15:55:07;3.78;;;3.45;;